North Oaks, Indiana
Current Conditions -  °F | °C
As of 4:55 AM on Sunday 25 Jan 2015 (Local Time) from KHHG Reporting Station
Scattered Clouds Scattered Clouds  
Wind Chill: 32°   Ceiling: Unl
Heat Index: 32°   Visibility: 7mi
Dew Point: 28°   Wind: 3mph
Humidity: 86%   Direction: 170°S
Pressure: 29.69"   Gusts: NA
Location:  40.7175°N, 85.1549°W
Report Text: KHHG 250955Z AUTO 17003KT 7SM SCT120 00/M02 A2969 RMK AO2 T00011020
Loading
Personal Weather Stations






























Interactive Weather Map New forecast layout! Learn more

10-Day Weather Forecast

Advertisements
Track Severe Weather on mobile